Latest Weather Observations for Kuitpo

IDS60901

Issued at 7:01 pm CST Monday 27 June 2016 (issued every 10 minutes, with the page automatically refreshed every 10 minutes)

About weather observations | Map of Adelaide area stations | Latest observations for Adelaide area | Other Formats
Station Details ID: 023887 Name: KUITPO FOREST RESERVE Lat: -35.17 Lon: 138.68 Height: 365.0 m
Data from the previous 72 hours. | See also: Recent months at Kuitpo
Date/Time
CST
Temp
°C
App
Temp
°C
Dew
Point
°C
Rel
Hum
%
Delta-T
°C
Wind Press
QNH
hPa
Press
MSL
hPa
Rain since
9am
mm
Dir  Spd
km/h
Gust
km/h
Spd
kts
Gust
kts
27/07:00pm 7.9 4.9 6.0 88 0.9 NNW 11 17 6 9 1021.1 1021.3 0.0
27/06:30pm 8.3 5.4 6.3 87 0.9 NNW 11 17 6 9 1020.9 1021.1 0.0
27/06:00pm 8.9 5.6 6.3 84 1.2 NNW 13 19 7 10 1020.6 1020.8 0.0
27/05:30pm 9.5 5.7 5.9 78 1.7 NW 15 19 8 10 1020.3 1020.5 0.0
27/05:00pm 10.0 6.6 6.0 76 1.9 NW 13 20 7 11 1020.1 1020.3 0.0
27/04:30pm 10.9 7.2 6.1 72 2.3 W 15 22 8 12 1019.9 1020.1 0.0
27/04:00pm 11.4 8.1 6.5 72 2.4 W 13 19 7 10 1019.7 1019.9 0.0
27/03:30pm 11.5 7.4 6.0 69 2.6 W 17 26 9 14 1019.6 1019.8 0.0
27/03:00pm 12.0 8.1 5.2 63 3.2 W 15 24 8 13 1019.4 1019.6 0.0
27/02:30pm 11.8 7.8 5.0 63 3.2 WSW 15 28 8 15 1019.3 1019.5 0.0
27/02:00pm 11.8 7.1 5.0 63 3.2 W 19 28 10 15 1019.3 1019.5 0.0
27/01:30pm 11.8 8.4 5.9 67 2.8 WSW 13 20 7 11 1019.4 1019.6 0.0
27/01:00pm 11.4 7.1 5.3 66 2.9 WSW 17 24 9 13 1019.5 1019.7 0.0
27/12:30pm 11.4 7.5 5.3 66 2.9 W 15 24 8 13 1019.7 1019.9 0.0
27/12:00pm 11.0 6.9 6.0 71 2.4 WSW 17 24 9 13 1019.9 1020.1 0.0
27/11:30am 11.2 8.5 7.5 78 1.8 WSW 11 20 6 11 1020.0 1020.2 0.0
27/11:00am 10.2 7.1 7.3 82 1.4 SW 13 20 7 11 1020.0 1020.2 0.0
27/10:30am 9.9 7.4 8.3 90 0.8 WSW 11 20 6 11 1019.9 1020.1 0.0
27/10:00am 8.8 6.0 8.5 98 0.1 SW 13 20 7 11 1019.6 1019.8 0.0
27/09:30am 8.8 6.8 8.8 100 0.0 WSW 9 13 5 7 1019.3 1019.5 0.0
27/09:00am 8.8 6.8 8.8 100 0.0 W 9 11 5 6 1019.1 1019.3 3.2
27/08:30am 8.4 6.7 8.4 100 0.0 W 7 11 4 6 1018.7 1018.9 3.2
27/08:00am 7.9 6.1 7.9 100 0.0 W 7 11 4 6 1018.2 1018.4 3.2
27/07:30am 7.4 5.1 7.3 99 0.0 WSW 9 13 5 7 1017.8 1018.0 3.2
27/07:00am 7.7 5.4 7.6 99 0.0 SW 9 13 5 7 1017.3 1017.5 3.2
27/06:30am 8.0 6.2 7.9 99 0.0 W 7 9 4 5 1017.0 1017.2 3.2
27/06:00am 8.1 6.5 8.0 99 0.0 W 6 7 3 4 1016.6 1016.8 3.2
27/05:30am 8.1 6.5 8.0 99 0.0 NW 6 7 3 4 1016.3 1016.4 3.2
27/05:00am 8.2 6.1 8.1 99 0.0 WNW 9 11 5 6 1015.8 1016.0 3.2
27/04:30am 8.2 6.4 8.1 99 0.0 W 7 13 4 7 1015.7 1015.9 3.2
27/04:00am 8.2 5.7 8.1 99 0.0 NW 11 19 6 10 1015.3 1015.5 2.2
27/03:30am 8.1 5.2 8.0 99 0.0 NW 13 17 7 9 1015.3 1015.5 1.4
27/03:00am 7.9 4.9 7.8 99 0.0 NNW 13 19 7 10 1015.1 1015.3 1.4
27/02:30am 7.8 4.8 7.7 99 0.0 NNW 13 20 7 11 1015.1 1015.3 1.2
27/02:00am 7.6 4.5 7.3 98 0.1 NNW 13 19 7 10 1015.0 1015.2 1.2
27/01:30am 7.5 4.4 7.2 98 0.1 NNW 13 19 7 10 1015.0 1015.2 1.2
27/01:00am 7.4 4.2 7.0 97 0.2 NNW 13 19 7 10 1015.1 1015.3 0.8
27/12:30am 7.2 3.9 6.6 96 0.3 NNW 13 20 7 11 1015.1 1015.3 0.8
27/12:00am 7.2 3.9 6.5 95 0.3 NNW 13 20 7 11 1015.1 1015.3 0.6
 
Date/Time
CST
Temp
°C
App
Temp
°C
Dew
Point
°C
Rel
Hum
%
Delta-T
°C
Wind Press
QNH
hPa
Press
MSL
hPa
Rain since
9am
mm
Dir  Spd
km/h
Gust
km/h
Spd
kts
Gust
kts
26/11:30pm 7.4 4.5 6.5 94 0.4 NNW 11 17 6 9 1015.1 1015.3 0.0
26/11:00pm 7.2 3.5 6.5 95 0.3 NNW 15 20 8 11 1015.0 1015.2 0.0
26/10:30pm 7.3 3.6 6.1 92 0.6 NNW 15 24 8 13 1015.0 1015.2 0.0
26/10:00pm 7.1 3.3 5.7 91 0.6 NNW 15 19 8 10 1014.9 1015.1 0.0
26/09:30pm 7.3 3.0 5.4 88 0.9 NNW 17 26 9 14 1014.8 1015.0 0.0
26/09:00pm 7.3 3.5 5.6 89 0.8 NNW 15 22 8 12 1014.8 1015.0 0.0
26/08:30pm 7.2 3.4 5.7 90 0.7 NNW 15 22 8 12 1014.8 1015.0 0.0
26/08:00pm 7.2 3.4 5.7 90 0.7 NNW 15 20 8 11 1014.7 1014.9 0.0
26/07:30pm 7.5 3.7 6.0 90 0.7 NNW 15 24 8 13 1014.7 1014.9 0.0
26/07:00pm 7.4 4.7 5.7 89 0.8 WNW 9 13 5 7 1014.8 1015.0 0.0
26/06:30pm 7.7 4.6 5.7 87 0.9 N 11 19 6 10 1014.4 1014.6 0.0
26/06:00pm 7.7 4.6 5.5 86 1.0 N 11 15 6 8 1014.2 1014.3 0.0
26/05:30pm 7.6 4.4 5.1 84 1.1 NNW 11 17 6 9 1014.0 1014.1 0.0
26/05:00pm 8.1 5.4 5.6 84 1.1 NNW 9 17 5 9 1013.9 1014.0 0.0
26/04:30pm 8.1 4.5 4.9 80 1.4 NNW 13 24 7 13 1013.9 1014.0 0.0
26/04:00pm 8.3 4.2 6.3 87 0.9 NNW 17 30 9 16 1013.7 1013.8 0.0
26/03:30pm 9.1 4.2 4.3 72 2.2 NNW 19 28 10 15 1013.5 1013.6 0.0
26/03:00pm 9.6 5.3 5.2 74 2.0 NW 17 26 9 14 1013.6 1013.7 0.0
26/02:30pm 10.4 6.1 5.4 71 2.3 NW 17 26 9 14 1013.9 1014.0 0.0
26/02:00pm 9.4 5.1 5.2 75 1.9 NW 17 26 9 14 1013.9 1014.0 0.0
26/01:30pm 10.1 5.2 4.0 66 2.8 NW 19 35 10 19 1014.0 1014.1 0.0
26/01:00pm 10.2 5.4 4.8 69 2.5 NW 19 35 10 19 1014.3 1014.5 0.0
26/12:30pm 9.5 4.5 3.7 67 2.6 NW 19 35 10 19 1014.6 1014.8 0.0
26/12:00pm 9.6 5.4 4.0 68 2.5 NNW 15 26 8 14 1015.1 1015.3 0.0
26/11:30am 10.6 6.0 3.6 62 3.1 NNW 17 30 9 16 1015.5 1015.7 0.0
26/11:00am 10.9 7.0 3.5 60 3.3 NNW 13 24 7 13 1015.8 1016.0 0.0
26/10:30am 10.4 6.7 4.5 67 2.7 N 13 24 7 13 1016.2 1016.3 0.0
26/10:00am 8.6 4.2 4.6 76 1.8 N 17 28 9 15 1016.5 1016.6 0.0
26/09:30am 8.5 4.0 4.3 75 1.9 N 17 28 9 15 1016.5 1016.6 0.0
26/09:00am 7.9 4.6 4.5 79 1.5 N 11 19 6 10 1016.6 1016.8 0.0
26/08:30am 7.6 3.9 4.2 79 1.5 N 13 20 7 11 1016.3 1016.4 0.0
26/08:00am 7.5 3.8 4.6 82 1.3 N 13 22 7 12 1016.4 1016.5 0.0
26/07:30am 7.4 4.1 4.7 83 1.2 N 11 17 6 9 1016.3 1016.4 0.0
26/07:00am 7.1 4.2 4.8 85 1.0 N 9 11 5 6 1015.9 1016.1 0.0
26/06:30am 7.2 4.3 4.9 85 1.0 NNE 9 13 5 7 1015.8 1016.0 0.0
26/06:00am 7.2 4.3 4.7 84 1.1 N 9 13 5 7 1016.2 1016.3 0.0
26/05:30am 7.2 4.3 4.5 83 1.2 N 9 13 5 7 1016.2 1016.3 0.0
26/05:00am 7.4 3.7 4.4 81 1.3 N 13 19 7 10 1016.5 1016.6 0.0
26/04:30am 7.6 3.8 3.8 77 1.7 NNW 13 20 7 11 1016.7 1016.9 0.0
26/04:00am 7.4 4.0 4.2 80 1.4 NNW 11 15 6 8 1016.9 1017.1 0.0
26/03:30am 7.2 4.2 4.2 81 1.3 N 9 15 5 8 1017.0 1017.2 0.0
26/03:00am 7.1 4.6 4.6 84 1.1 N 7 15 4 8 1017.1 1017.3 0.0
26/02:30am 6.9 5.0 5.1 88 0.8 N 4 11 2 6 1017.4 1017.6 0.0
26/02:00am 7.0 4.8 5.2 88 0.8 NNE 6 11 3 6 1017.6 1017.8 0.0
26/01:30am 7.0 4.2 5.3 89 0.8 NNE 9 11 5 6 1017.8 1018.0 0.0
26/01:00am 7.0 4.7 5.5 90 0.7 NNE 7 11 4 6 1018.0 1018.2 0.0
26/12:30am 7.0 4.2 5.3 89 0.8 NNE 9 13 5 7 1017.7 1017.9 0.0
26/12:00am 7.1 4.8 5.6 90 0.7 NNE 7 11 4 6 1018.0 1018.2 0.0
 
Date/Time
CST
Temp
°C
App
Temp
°C
Dew
Point
°C
Rel
Hum
%
Delta-T
°C
Wind Press
QNH
hPa
Press
MSL
hPa
Rain since
9am
mm
Dir  Spd
km/h
Gust
km/h
Spd
kts
Gust
kts
25/11:30pm 7.1 4.8 5.6 90 0.7 NNE 7 11 4 6 1018.3 1018.5 0.0
25/11:00pm 7.2 4.9 5.7 90 0.7 NNE 7 11 4 6 1018.5 1018.7 0.0
25/10:30pm 7.3 5.2 5.8 90 0.7 NNE 6 9 3 5 1019.1 1019.3 0.0
25/10:00pm 7.4 4.7 5.7 89 0.8 NNE 9 13 5 7 1019.2 1019.4 0.0
25/09:30pm 7.5 4.8 5.5 87 0.9 NE 9 13 5 7 1018.8 1019.1 0.0
25/09:00pm 7.8 5.6 5.4 85 1.1 N 6 9 3 5 1019.1 1019.3 0.0
25/08:30pm 7.8 5.4 5.3 84 1.1 N 7 11 4 6 1019.4 1019.6 0.0
25/08:00pm 8.0 4.8 5.3 83 1.2 N 11 17 6 9 1019.8 1020.0 0.0
25/07:30pm 7.8 5.4 5.3 84 1.1 N 7 11 4 6 1020.3 1020.5 0.0
25/07:00pm 7.8 5.6 5.4 85 1.1 N 6 9 3 5 1020.4 1020.6 0.0
25/06:30pm 7.7 5.5 5.5 86 1.0 NNE 6 7 3 4 1019.9 1020.1 0.0
25/06:00pm 7.7 6.3 5.3 85 1.1 NNE 2 7 1 4 1019.7 1019.9 0.0
25/05:30pm 8.2 6.8 5.7 84 1.1 N 2 7 1 4 1019.8 1020.0 0.0
25/05:00pm 8.6 6.9 5.9 83 1.3 N 4 9 2 5 1019.9 1020.1 0.0
25/04:30pm 8.8 6.5 5.7 81 1.4 NNW 7 11 4 6 1020.0 1020.2 0.0
25/04:00pm 9.1 6.8 5.7 79 1.6 NW 7 13 4 7 1020.1 1020.3 0.0
25/03:30pm 9.2 6.5 5.4 77 1.7 NNW 9 11 5 6 1020.3 1020.5 0.0
25/03:00pm 10.1 6.5 5.1 71 2.3 NNW 13 19 7 10 1020.3 1020.5 0.0
25/02:30pm 9.4 6.2 5.2 75 1.9 NW 11 17 6 9 1020.4 1020.6 0.0
25/02:00pm 10.4 6.9 5.6 72 2.2 NW 13 22 7 12 1020.7 1020.9 0.0
25/01:30pm 10.2 6.5 6.2 76 1.9 NW 15 22 8 12 1020.9 1021.1 0.0
25/01:00pm 9.3 5.7 5.1 75 1.9 NW 13 20 7 11 1021.2 1021.5 0.0
25/12:30pm 9.2 6.5 5.8 79 1.6 NW 9 15 5 8 1021.8 1022.1 0.0
25/12:00pm 9.2 6.1 5.6 78 1.7 NW 11 15 6 8 1022.4 1022.6 0.0
25/11:30am 10.2 7.7 6.5 78 1.8 NW 9 15 5 8 1022.6 1022.8 0.0
25/11:00am 9.1 6.9 6.2 82 1.4 NNW 7 13 4 7 1023.0 1023.2 0.0
25/10:30am 9.4 7.3 6.5 82 1.4 NNE 7 11 4 6 1023.2 1023.4 0.0
25/10:00am 8.2 5.6 6.0 86 1.0 NE 9 13 5 7 1023.1 1023.3 0.0
25/09:30am 6.8 4.1 5.4 91 0.6 NNE 9 13 5 7 1022.9 1023.1 0.0
25/09:00am 5.9 3.1 5.3 96 0.3 NNE 9 11 5 6 1023.0 1023.2 2.6
25/08:30am 4.7 1.7 4.3 97 0.2 NNE 9 13 5 7 1022.8 1023.0 2.6
25/08:00am 3.5 0.3 3.1 97 0.2 NNE 9 11 5 6 1022.7 1022.9 2.6
25/07:30am 3.4 0.2 2.8 96 0.2 NNE 9 11 5 6 1022.5 1022.7 2.6
25/07:00am 3.6 0.4 3.0 96 0.2 NNE 9 11 5 6 1022.2 1022.4 2.6
25/06:30am 3.8 0.6 2.9 94 0.4 NNE 9 11 5 6 1022.1 1022.3 2.6
25/06:00am 4.6 1.9 3.7 94 0.4 NNE 7 9 4 5 1021.7 1022.0 2.6
25/05:30am 5.4 2.9 4.5 94 0.4 N 7 9 4 5 1021.7 1022.0 2.6
25/05:00am 4.9 2.2 3.7 92 0.5 N 7 9 4 5 1021.5 1021.8 2.6
25/04:30am 5.7 2.4 4.3 91 0.6 NNW 11 13 6 7 1021.5 1021.8 2.6
25/04:00am 4.8 1.6 3.3 90 0.6 N 9 11 5 6 1021.5 1021.8 2.6
25/03:30am 6.2 3.6 4.2 87 0.9 WNW 7 11 4 6 1021.3 1021.6 2.6
25/03:00am 6.0 3.4 4.2 88 0.8 WNW 7 9 4 5 1021.3 1021.6 2.6
25/02:30am 5.7 3.1 4.0 89 0.7 WNW 7 7 4 4 1021.3 1021.6 2.6
25/02:00am 5.5 3.0 4.0 90 0.6 WNW 6 9 3 5 1021.3 1021.6 2.6
25/01:30am 5.6 3.0 4.2 91 0.6 SW 7 11 4 6 1021.1 1021.3 2.6
25/01:00am 5.6 2.6 4.1 90 0.7 WSW 9 13 5 7 1021.1 1021.3 2.6
25/12:30am 5.8 2.8 4.0 88 0.8 SW 9 11 5 6 1021.0 1021.2 2.6
25/12:00am 6.0 2.9 3.8 86 0.9 WSW 9 11 5 6 1021.0 1021.2 2.6
 
Date/Time
CST
Temp
°C
App
Temp
°C
Dew
Point
°C
Rel
Hum
%
Delta-T
°C
Wind Press
QNH
hPa
Press
MSL
hPa
Rain since
9am
mm
Dir  Spd
km/h
Gust
km/h
Spd
kts
Gust
kts
24/11:30pm 5.7 4.3 3.7 87 0.9 CALM 0 0 0 0 1021.0 1021.2 2.6
24/11:00pm 6.0 3.5 3.7 85 1.0 WSW 6 7 3 4 1021.0 1021.2 2.6
24/10:30pm 6.4 3.7 3.9 84 1.1 W 7 11 4 6 1021.0 1021.2 2.6
24/10:00pm 5.9 2.7 3.2 83 1.1 W 9 11 5 6 1020.9 1021.1 2.6
24/09:30pm 5.8 2.2 3.1 83 1.1 W 11 13 6 7 1020.9 1021.1 2.6
24/09:00pm 5.8 2.2 3.1 83 1.1 W 11 13 6 7 1020.8 1021.0 2.6
24/08:30pm 6.2 2.6 3.2 81 1.3 SW 11 15 6 8 1020.5 1020.7 2.6
24/08:00pm 6.2 2.6 3.2 81 1.3 WSW 11 15 6 8 1020.3 1020.5 2.6
24/07:30pm 6.1 2.1 3.1 81 1.3 SW 13 22 7 12 1019.8 1020.0 2.6

Latest Capital City Observations: Canberra | Sydney | Melbourne | Brisbane | Adelaide | Perth | Hobart | Darwin

Other Formats:

Comma delimited format used in spreadsheet applications
http://www.bom.gov.au/fwo/IDS60901/IDS60901.94683.axf

JavaScript Object Notation format (JSON) in row-major order
http://www.bom.gov.au/fwo/IDS60901/IDS60901.94683.json